Aurora, CO (80011)

8:36 PM MDT on May 26, 2017 (GMT -0600)
Rinker - Norfolk Glen | | Change Station

Elev 5456 ft 39.75 °N, 104.80 °W | Updated 5 seconds ago

Partly Cloudy
Partly Cloudy
60.1 °F
Feels Like 60.1 °F
N
4.0
Wind Variable Wind from NE
Gusts 10.0 mph

Today
High -- | Low -- °F
--% Chance of Precip.
Yesterday
High -- | Low -- °F
Precip. -- in
Pressure 29.69 in
Visibility 10.0 miles
Clouds Few 7000 ft
Scattered Clouds 15000 ft
Dew Point 51 °F
Humidity 73%
Rainfall 0.27 in
Snow Depth Not available.
5:36 AM 8:16 PM
Waxing Crescent, 3% visible
METAR KBKF 270158Z 34006KT 10SM FEW070 SCT150 18/09 A2984 RMK AO2A SLP052 T01790088
Pressure 29.69 in
Visibility 10.0 miles
Clouds Few 7000 ft
Scattered Clouds 15000 ft
Dew Point 51 °F
Humidity 73%
Rainfall 0.27 in
Snow Depth Not available.
5:36 AM 8:16 PM
Waxing Crescent, 3% visible
METAR KBKF 270158Z 34006KT 10SM FEW070 SCT150 18/09 A2984 RMK AO2A SLP052 T01790088

Get Severe Weather Alerts

Thanks for signing up!

Be on the lookout for a verification email in your inbox.

You'll start receiving the daily forecast at 6 AM.

×

10-Day Weather Forecast

Almanac

Astronomy

May. 26, 2017 Rise Set
Actual Time
Civil Twilight
Nautical Twilight
Astronomical Twilight
Moon
Length of Visible Light
Length of Day
Tomorrow will be .
, % of the Moon is Illuminated

Today's Extremes

State Highs State Lows

Community

WunderPhotos

Category 6

Welcome to Category 6. This is the collective home for Weather Underground's featured writeups by Dr. Jeff Masters (right), Bob Henson (left), Chris Burt, and other regular contributors.

Nearby

Air Quality

  Air Quality AQ Index Pollutant
Not available.

Snow Depth

Station Depth Elevation

Earthquake Activity

City Distance Mag. Time & Date
Minimum magnitude displayed is 2.5.

Coastal Water Temperatures

Place Temperature

Stations

Nearby Weather Stations

Station Location Temp. Windchill Dew Point Humidity Wind Precip. Elev Updated Type
                   

Watches & Warnings

There are currently no watches in effect.